sensor_id;sensor_type;location;lat;lon;timestamp;pressure;altitude;pressure_sealevel;temperature;humidity
13695;BME280;6919;52.344;14.518;2023-04-19T00:02:18;101763.78;;;8.33;100.00
13695;BME280;6919;52.344;14.518;2023-04-19T00:04:47;101769.91;;;8.23;100.00
13695;BME280;6919;52.344;14.518;2023-04-19T00:07:16;101770.72;;;8.36;100.00
13695;BME280;6919;52.344;14.518;2023-04-19T00:09:46;101772.53;;;8.35;100.00
13695;BME280;6919;52.344;14.518;2023-04-19T00:12:14;101768.03;;;8.36;100.00
13695;BME280;6919;52.344;14.518;2023-04-19T00:14:43;101765.38;;;8.36;100.00
13695;BME280;6919;52.344;14.518;2023-04-19T00:17:11;101760.25;;;8.20;100.00
13695;BME280;6919;52.344;14.518;2023-04-19T00:19:41;101749.91;;;8.16;100.00
13695;BME280;6919;52.344;14.518;2023-04-19T00:22:10;101755.78;;;8.08;100.00
13695;BME280;6919;52.344;14.518;2023-04-19T00:24:38;101751.31;;;8.09;100.00
13695;BME280;6919;52.344;14.518;2023-04-19T00:27:07;101743.63;;;8.04;100.00
13695;BME280;6919;52.344;14.518;2023-04-19T00:29:36;101747.28;;;8.03;100.00
13695;BME280;6919;52.344;14.518;2023-04-19T00:32:04;101752.38;;;8.06;100.00
13695;BME280;6919;52.344;14.518;2023-04-19T00:34:33;101747.59;;;7.99;100.00
13695;BME280;6919;52.344;14.518;2023-04-19T00:37:02;101750.06;;;8.02;100.00
13695;BME280;6919;52.344;14.518;2023-04-19T00:39:31;101754.31;;;8.04;100.00
13695;BME280;6919;52.344;14.518;2023-04-19T00:42:00;101757.22;;;7.89;100.00
13695;BME280;6919;52.344;14.518;2023-04-19T00:44:28;101754.34;;;7.92;100.00
13695;BME280;6919;52.344;14.518;2023-04-19T00:46:58;101750.19;;;7.88;100.00
13695;BME280;6919;52.344;14.518;2023-04-19T00:49:27;101750.63;;;7.69;100.00
13695;BME280;6919;52.344;14.518;2023-04-19T00:51:56;101747.97;;;7.57;100.00
13695;BME280;6919;52.344;14.518;2023-04-19T00:54:26;101756.38;;;7.51;100.00
13695;BME280;6919;52.344;14.518;2023-04-19T00:56:55;101748.28;;;7.52;100.00
13695;BME280;6919;52.344;14.518;2023-04-19T00:59:24;101751.69;;;7.29;100.00
13695;BME280;6919;52.344;14.518;2023-04-19T01:01:53;101747.53;;;7.25;100.00
13695;BME280;6919;52.344;14.518;2023-04-19T01:04:22;101740.16;;;7.29;100.00
13695;BME280;6919;52.344;14.518;2023-04-19T01:06:52;101743.91;;;7.26;100.00
13695;BME280;6919;52.344;14.518;2023-04-19T01:09:21;101747.94;;;7.19;100.00
13695;BME280;6919;52.344;14.518;2023-04-19T01:11:51;101739.28;;;7.16;100.00
13695;BME280;6919;52.344;14.518;2023-04-19T01:14:20;101741.66;;;7.20;100.00
13695;BME280;6919;52.344;14.518;2023-04-19T01:16:48;101729.16;;;7.08;100.00
13695;BME280;6919;52.344;14.518;2023-04-19T01:19:17;101731.50;;;7.13;100.00
13695;BME280;6919;52.344;14.518;2023-04-19T01:21:46;101725.72;;;7.06;100.00
13695;BME280;6919;52.344;14.518;2023-04-19T01:24:16;101732.13;;;7.04;100.00
13695;BME280;6919;52.344;14.518;2023-04-19T01:26:44;101735.50;;;6.93;100.00
13695;BME280;6919;52.344;14.518;2023-04-19T01:29:13;101731.97;;;6.80;100.00
13695;BME280;6919;52.344;14.518;2023-04-19T01:31:41;101726.03;;;6.63;100.00
13695;BME280;6919;52.344;14.518;2023-04-19T01:34:15;101728.72;;;6.63;100.00
13695;BME280;6919;52.344;14.518;2023-04-19T01:36:43;101733.56;;;6.44;100.00
13695;BME280;6919;52.344;14.518;2023-04-19T01:39:12;101737.56;;;6.37;100.00
13695;BME280;6919;52.344;14.518;2023-04-19T01:41:41;101738.16;;;6.28;100.00
13695;BME280;6919;52.344;14.518;2023-04-19T01:44:10;101733.25;;;6.22;100.00
13695;BME280;6919;52.344;14.518;2023-04-19T01:46:39;101728.97;;;6.19;100.00
13695;BME280;6919;52.344;14.518;2023-04-19T01:49:08;101731.25;;;6.11;100.00
13695;BME280;6919;52.344;14.518;2023-04-19T01:51:38;101726.63;;;6.00;100.00
13695;BME280;6919;52.344;14.518;2023-04-19T01:54:06;101728.34;;;5.87;100.00
13695;BME280;6919;52.344;14.518;2023-04-19T01:56:34;101722.94;;;5.89;100.00
13695;BME280;6919;52.344;14.518;2023-04-19T01:59:05;101725.31;;;5.79;100.00
13695;BME280;6919;52.344;14.518;2023-04-19T02:01:33;101715.91;;;5.60;100.00
13695;BME280;6919;52.344;14.518;2023-04-19T02:04:02;101708.03;;;5.58;100.00
13695;BME280;6919;52.344;14.518;2023-04-19T02:06:31;101716.19;;;5.55;100.00
13695;BME280;6919;52.344;14.518;2023-04-19T02:08:59;101721.59;;;5.54;100.00
13695;BME280;6919;52.344;14.518;2023-04-19T02:11:27;101715.31;;;5.55;100.00
13695;BME280;6919;52.344;14.518;2023-04-19T02:13:57;101712.00;;;5.51;100.00
13695;BME280;6919;52.344;14.518;2023-04-19T02:16:27;101711.03;;;5.38;100.00
13695;BME280;6919;52.344;14.518;2023-04-19T02:18:55;101700.41;;;5.38;100.00
13695;BME280;6919;52.344;14.518;2023-04-19T02:21:24;101705.06;;;5.35;100.00
13695;BME280;6919;52.344;14.518;2023-04-19T02:23:53;101698.72;;;5.37;100.00
13695;BME280;6919;52.344;14.518;2023-04-19T02:26:21;101702.88;;;5.41;100.00
13695;BME280;6919;52.344;14.518;2023-04-19T02:28:51;101694.53;;;5.19;100.00
13695;BME280;6919;52.344;14.518;2023-04-19T02:31:27;101696.03;;;5.23;100.00
13695;BME280;6919;52.344;14.518;2023-04-19T02:46:55;101693.63;;;5.05;100.00
13695;BME280;6919;52.344;14.518;2023-04-19T02:49:24;101688.19;;;4.92;100.00
13695;BME280;6919;52.344;14.518;2023-04-19T02:51:52;101688.28;;;4.91;100.00
13695;BME280;6919;52.344;14.518;2023-04-19T02:54:21;101670.81;;;4.87;100.00
13695;BME280;6919;52.344;14.518;2023-04-19T02:56:49;101674.25;;;4.89;100.00
13695;BME280;6919;52.344;14.518;2023-04-19T02:59:18;101669.78;;;4.89;100.00
13695;BME280;6919;52.344;14.518;2023-04-19T03:01:46;101668.28;;;4.99;100.00
13695;BME280;6919;52.344;14.518;2023-04-19T03:04:16;101662.69;;;4.90;100.00
13695;BME280;6919;52.344;14.518;2023-04-19T03:06:45;101664.84;;;4.83;100.00
13695;BME280;6919;52.344;14.518;2023-04-19T03:09:13;101668.06;;;4.74;100.00
13695;BME280;6919;52.344;14.518;2023-04-19T03:11:41;101659.34;;;4.72;100.00
13695;BME280;6919;52.344;14.518;2023-04-19T03:14:10;101657.38;;;4.60;100.00
13695;BME280;6919;52.344;14.518;2023-04-19T03:16:38;101661.13;;;4.72;100.00
13695;BME280;6919;52.344;14.518;2023-04-19T03:19:07;101651.91;;;4.63;100.00
13695;BME280;6919;52.344;14.518;2023-04-19T03:21:37;101641.09;;;4.66;100.00
13695;BME280;6919;52.344;14.518;2023-04-19T03:24:06;101645.53;;;4.66;100.00
13695;BME280;6919;52.344;14.518;2023-04-19T03:26:35;101633.63;;;4.43;100.00
13695;BME280;6919;52.344;14.518;2023-04-19T03:29:03;101633.97;;;4.53;100.00
13695;BME280;6919;52.344;14.518;2023-04-19T03:31:32;101630.59;;;4.49;100.00
13695;BME280;6919;52.344;14.518;2023-04-19T03:34:00;101632.22;;;4.52;100.00
13695;BME280;6919;52.344;14.518;2023-04-19T03:36:29;101626.06;;;4.51;100.00
13695;BME280;6919;52.344;14.518;2023-04-19T03:38:58;101632.72;;;4.29;100.00
13695;BME280;6919;52.344;14.518;2023-04-19T03:41:27;101621.56;;;4.38;100.00
13695;BME280;6919;52.344;14.518;2023-04-19T03:43:55;101622.44;;;4.38;100.00
13695;BME280;6919;52.344;14.518;2023-04-19T03:46:24;101617.88;;;4.40;100.00
13695;BME280;6919;52.344;14.518;2023-04-19T03:48:53;101622.72;;;4.48;100.00
13695;BME280;6919;52.344;14.518;2023-04-19T03:51:21;101612.19;;;4.46;100.00
13695;BME280;6919;52.344;14.518;2023-04-19T03:53:50;101604.22;;;4.46;100.00
13695;BME280;6919;52.344;14.518;2023-04-19T03:56:19;101610.97;;;4.52;100.00
13695;BME280;6919;52.344;14.518;2023-04-19T03:58:50;101599.97;;;4.44;100.00
13695;BME280;6919;52.344;14.518;2023-04-19T04:01:19;101600.88;;;4.58;100.00
13695;BME280;6919;52.344;14.518;2023-04-19T04:03:47;101590.59;;;4.52;100.00
13695;BME280;6919;52.344;14.518;2023-04-19T04:06:16;101589.63;;;4.39;100.00
13695;BME280;6919;52.344;14.518;2023-04-19T04:08:44;101589.63;;;4.39;100.00
13695;BME280;6919;52.344;14.518;2023-04-19T04:11:13;101594.69;;;4.28;100.00
13695;BME280;6919;52.344;14.518;2023-04-19T04:13:43;101590.47;;;4.40;100.00
13695;BME280;6919;52.344;14.518;2023-04-19T04:16:12;101596.34;;;4.45;100.00
13695;BME280;6919;52.344;14.518;2023-04-19T04:18:41;101595.53;;;4.44;100.00
13695;BME280;6919;52.344;14.518;2023-04-19T04:21:09;101580.91;;;4.37;100.00
13695;BME280;6919;52.344;14.518;2023-04-19T04:23:38;101595.69;;;4.41;100.00
13695;BME280;6919;52.344;14.518;2023-04-19T04:26:07;101585.47;;;4.49;100.00
13695;BME280;6919;52.344;14.518;2023-04-19T04:28:37;101594.22;;;4.51;100.00
13695;BME280;6919;52.344;14.518;2023-04-19T04:31:07;101586.97;;;4.39;100.00
13695;BME280;6919;52.344;14.518;2023-04-19T04:33:36;101586.59;;;4.45;100.00
13695;BME280;6919;52.344;14.518;2023-04-19T04:36:05;101586.72;;;4.58;100.00
13695;BME280;6919;52.344;14.518;2023-04-19T04:38:35;101577.22;;;4.54;100.00
13695;BME280;6919;52.344;14.518;2023-04-19T04:41:04;101579.03;;;4.67;100.00
13695;BME280;6919;52.344;14.518;2023-04-19T04:43:33;101574.19;;;4.74;100.00
13695;BME280;6919;52.344;14.518;2023-04-19T04:46:01;101581.16;;;4.90;100.00
13695;BME280;6919;52.344;14.518;2023-04-19T04:48:31;101584.00;;;4.87;100.00
13695;BME280;6919;52.344;14.518;2023-04-19T04:51:00;101581.72;;;5.09;100.00
13695;BME280;6919;52.344;14.518;2023-04-19T04:53:29;101575.34;;;4.98;100.00
13695;BME280;6919;52.344;14.518;2023-04-19T04:55:57;101574.38;;;5.27;100.00
13695;BME280;6919;52.344;14.518;2023-04-19T04:58:25;101575.44;;;5.24;100.00
13695;BME280;6919;52.344;14.518;2023-04-19T05:00:54;101575.44;;;5.24;100.00
13695;BME280;6919;52.344;14.518;2023-04-19T05:03:22;101571.44;;;5.31;100.00
13695;BME280;6919;52.344;14.518;2023-04-19T05:05:52;101581.09;;;5.46;100.00
13695;BME280;6919;52.344;14.518;2023-04-19T05:08:20;101588.41;;;5.57;100.00
13695;BME280;6919;52.344;14.518;2023-04-19T05:10:49;101584.44;;;5.76;100.00
13695;BME280;6919;52.344;14.518;2023-04-19T05:13:17;101580.50;;;5.96;100.00
13695;BME280;6919;52.344;14.518;2023-04-19T05:15:46;101583.19;;;5.96;100.00
13695;BME280;6919;52.344;14.518;2023-04-19T05:18:14;101572.88;;;6.04;100.00
13695;BME280;6919;52.344;14.518;2023-04-19T05:20:43;101561.50;;;6.15;100.00
13695;BME280;6919;52.344;14.518;2023-04-19T05:23:14;101562.34;;;6.15;100.00
13695;BME280;6919;52.344;14.518;2023-04-19T05:25:42;101560.84;;;6.11;100.00
13695;BME280;6919;52.344;14.518;2023-04-19T05:28:11;101549.06;;;6.28;100.00
13695;BME280;6919;52.344;14.518;2023-04-19T05:30:39;101546.44;;;6.01;100.00
13695;BME280;6919;52.344;14.518;2023-04-19T05:33:08;101544.78;;;6.13;100.00
13695;BME280;6919;52.344;14.518;2023-04-19T05:35:36;101546.09;;;6.32;100.00
13695;BME280;6919;52.344;14.518;2023-04-19T05:38:05;101542.34;;;6.22;100.00
13695;BME280;6919;52.344;14.518;2023-04-19T05:40:34;101535.44;;;6.32;100.00
13695;BME280;6919;52.344;14.518;2023-04-19T05:43:03;101539.84;;;6.46;100.00
13695;BME280;6919;52.344;14.518;2023-04-19T05:45:31;101532.06;;;6.43;100.00
13695;BME280;6919;52.344;14.518;2023-04-19T05:48:00;101533.84;;;6.42;100.00
13695;BME280;6919;52.344;14.518;2023-04-19T05:50:28;101525.09;;;6.40;100.00
13695;BME280;6919;52.344;14.518;2023-04-19T05:52:57;101527.16;;;6.62;100.00
13695;BME280;6919;52.344;14.518;2023-04-19T05:55:25;101534.19;;;6.63;100.00
13695;BME280;6919;52.344;14.518;2023-04-19T05:57:55;101531.41;;;6.77;100.00
13695;BME280;6919;52.344;14.518;2023-04-19T06:00:24;101528.63;;;6.91;100.00
13695;BME280;6919;52.344;14.518;2023-04-19T06:02:53;101522.56;;;6.89;100.00
13695;BME280;6919;52.344;14.518;2023-04-19T06:05:22;101523.88;;;6.71;100.00
13695;BME280;6919;52.344;14.518;2023-04-19T06:07:51;101523.41;;;6.89;100.00
13695;BME280;6919;52.344;14.518;2023-04-19T06:10:29;101518.72;;;6.93;100.00
13695;BME280;6919;52.344;14.518;2023-04-19T06:13:19;101511.03;;;7.01;100.00
13695;BME280;6919;52.344;14.518;2023-04-19T06:15:47;101510.25;;;7.11;100.00
13695;BME280;6919;52.344;14.518;2023-04-19T06:18:16;101505.28;;;7.30;100.00
13695;BME280;6919;52.344;14.518;2023-04-19T06:20:46;101519.03;;;7.37;100.00
13695;BME280;6919;52.344;14.518;2023-04-19T06:23:14;101516.38;;;7.37;100.00
13695;BME280;6919;52.344;14.518;2023-04-19T06:25:44;101514.72;;;7.47;100.00
13695;BME280;6919;52.344;14.518;2023-04-19T06:28:15;101514.22;;;7.42;100.00
13695;BME280;6919;52.344;14.518;2023-04-19T06:30:44;101503.63;;;7.53;100.00
13695;BME280;6919;52.344;14.518;2023-04-19T06:33:13;101513.38;;;7.65;100.00
13695;BME280;6919;52.344;14.518;2023-04-19T06:35:41;101505.72;;;7.84;100.00
13695;BME280;6919;52.344;14.518;2023-04-19T06:38:10;101507.59;;;8.05;100.00
13695;BME280;6919;52.344;14.518;2023-04-19T06:40:38;101502.19;;;8.18;100.00
13695;BME280;6919;52.344;14.518;2023-04-19T06:43:07;101487.84;;;8.42;100.00
13695;BME280;6919;52.344;14.518;2023-04-19T06:45:35;101498.75;;;8.39;100.00
13695;BME280;6919;52.344;14.518;2023-04-19T06:48:05;101489.25;;;8.24;100.00
13695;BME280;6919;52.344;14.518;2023-04-19T06:50:33;101500.59;;;8.61;100.00
13695;BME280;6919;52.344;14.518;2023-04-19T06:53:02;101491.66;;;7.93;100.00
13695;BME280;6919;52.344;14.518;2023-04-19T06:55:31;101483.94;;;8.35;100.00
13695;BME280;6919;52.344;14.518;2023-04-19T06:57:59;101479.88;;;8.19;100.00
13695;BME280;6919;52.344;14.518;2023-04-19T07:00:27;101481.13;;;8.02;100.00
13695;BME280;6919;52.344;14.518;2023-04-19T07:02:56;101469.47;;;8.27;100.00
13695;BME280;6919;52.344;14.518;2023-04-19T07:05:28;101476.31;;;8.07;100.00
13695;BME280;6919;52.344;14.518;2023-04-19T07:07:57;101475.19;;;8.33;100.00
13695;BME280;6919;52.344;14.518;2023-04-19T07:10:25;101469.03;;;8.55;100.00
13695;BME280;6919;52.344;14.518;2023-04-19T07:12:54;101470.47;;;8.59;100.00
13695;BME280;6919;52.344;14.518;2023-04-19T07:15:22;101477.75;;;8.57;100.00
13695;BME280;6919;52.344;14.518;2023-04-19T07:17:50;101466.34;;;8.99;100.00
13695;BME280;6919;52.344;14.518;2023-04-19T07:20:19;101468.78;;;8.91;100.00
13695;BME280;6919;52.344;14.518;2023-04-19T07:22:50;101469.38;;;8.94;100.00
13695;BME280;6919;52.344;14.518;2023-04-19T07:25:18;101473.00;;;9.04;100.00
13695;BME280;6919;52.344;14.518;2023-04-19T07:27:46;101472.91;;;8.95;100.00
13695;BME280;6919;52.344;14.518;2023-04-19T07:30:15;101477.91;;;8.99;100.00
13695;BME280;6919;52.344;14.518;2023-04-19T07:32:43;101481.41;;;9.22;100.00
13695;BME280;6919;52.344;14.518;2023-04-19T07:35:12;101472.41;;;9.55;100.00
13695;BME280;6919;52.344;14.518;2023-04-19T07:37:41;101481.63;;;9.30;100.00
13695;BME280;6919;52.344;14.518;2023-04-19T07:40:12;101471.22;;;9.48;100.00
13695;BME280;6919;52.344;14.518;2023-04-19T07:42:42;101464.28;;;9.88;100.00
13695;BME280;6919;52.344;14.518;2023-04-19T07:45:10;101460.16;;;10.04;100.00
13695;BME280;6919;52.344;14.518;2023-04-19T07:47:40;101462.53;;;9.98;100.00
13695;BME280;6919;52.344;14.518;2023-04-19T07:50:09;101466.00;;;10.09;100.00
13695;BME280;6919;52.344;14.518;2023-04-19T07:52:38;101469.31;;;10.02;100.00
13695;BME280;6919;52.344;14.518;2023-04-19T07:55:11;101457.75;;;10.01;100.00
13695;BME280;6919;52.344;14.518;2023-04-19T07:57:39;101464.41;;;10.68;100.00
13695;BME280;6919;52.344;14.518;2023-04-19T08:00:13;101466.09;;;10.69;100.00
13695;BME280;6919;52.344;14.518;2023-04-19T08:02:42;101465.69;;;10.44;100.00
13695;BME280;6919;52.344;14.518;2023-04-19T08:05:12;101466.41;;;10.25;100.00
13695;BME280;6919;52.344;14.518;2023-04-19T08:07:43;101467.84;;;10.29;100.00
13695;BME280;6919;52.344;14.518;2023-04-19T08:10:13;101472.03;;;10.22;100.00
13695;BME280;6919;52.344;14.518;2023-04-19T08:12:42;101465.94;;;10.41;100.00
13695;BME280;6919;52.344;14.518;2023-04-19T08:15:30;101460.81;;;10.88;100.00
13695;BME280;6919;52.344;14.518;2023-04-19T08:18:01;101452.72;;;11.18;100.00
13695;BME280;6919;52.344;14.518;2023-04-19T08:20:31;101445.69;;;11.27;100.00
13695;BME280;6919;52.344;14.518;2023-04-19T08:23:00;101449.34;;;11.16;100.00
13695;BME280;6919;52.344;14.518;2023-04-19T08:25:45;101442.31;;;10.85;100.00
13695;BME280;6919;52.344;14.518;2023-04-19T08:28:14;101442.22;;;10.36;100.00
13695;BME280;6919;52.344;14.518;2023-04-19T08:30:42;101438.97;;;10.63;100.00
13695;BME280;6919;52.344;14.518;2023-04-19T08:33:11;101437.66;;;10.57;100.00
13695;BME280;6919;52.344;14.518;2023-04-19T08:35:40;101439.59;;;10.76;100.00
13695;BME280;6919;52.344;14.518;2023-04-19T08:38:08;101445.00;;;11.34;100.00
13695;BME280;6919;52.344;14.518;2023-04-19T08:40:46;101443.00;;;11.27;100.00
13695;BME280;6919;52.344;14.518;2023-04-19T08:43:20;101444.88;;;11.55;100.00
13695;BME280;6919;52.344;14.518;2023-04-19T08:45:49;101438.84;;;11.62;100.00
13695;BME280;6919;52.344;14.518;2023-04-19T08:48:18;101434.44;;;11.61;100.00
13695;BME280;6919;52.344;14.518;2023-04-19T08:50:48;101436.94;;;11.44;98.62
13695;BME280;6919;52.344;14.518;2023-04-19T08:53:33;101448.69;;;10.84;100.00
13695;BME280;6919;52.344;14.518;2023-04-19T08:56:03;101440.44;;;10.76;100.00
13695;BME280;6919;52.344;14.518;2023-04-19T08:58:45;101427.47;;;10.81;100.00
13695;BME280;6919;52.344;14.518;2023-04-19T09:01:16;101425.69;;;10.91;100.00
13695;BME280;6919;52.344;14.518;2023-04-19T09:04:02;101413.94;;;11.79;97.07
13695;BME280;6919;52.344;14.518;2023-04-19T09:06:51;101418.75;;;11.85;94.19
13695;BME280;6919;52.344;14.518;2023-04-19T09:09:22;101417.03;;;11.56;91.05
13695;BME280;6919;52.344;14.518;2023-04-19T09:12:16;101417.75;;;11.39;96.03
13695;BME280;6919;52.344;14.518;2023-04-19T09:14:46;101412.91;;;11.52;96.21
13695;BME280;6919;52.344;14.518;2023-04-19T09:17:18;101418.47;;;11.88;93.80
13695;BME280;6919;52.344;14.518;2023-04-19T09:19:47;101415.88;;;12.06;86.45
13695;BME280;6919;52.344;14.518;2023-04-19T09:22:16;101401.78;;;11.95;86.03
13695;BME280;6919;52.344;14.518;2023-04-19T09:24:45;101409.22;;;12.20;86.90
13695;BME280;6919;52.344;14.518;2023-04-19T09:27:27;101394.22;;;12.63;84.52
13695;BME280;6919;52.344;14.518;2023-04-19T09:30:00;101391.56;;;12.54;84.52
13695;BME280;6919;52.344;14.518;2023-04-19T09:32:45;101392.03;;;12.40;81.59
13695;BME280;6919;52.344;14.518;2023-04-19T09:35:15;101397.13;;;12.43;79.83
13695;BME280;6919;52.344;14.518;2023-04-19T09:37:57;101394.41;;;12.52;79.92
13695;BME280;6919;52.344;14.518;2023-04-19T09:40:33;101399.16;;;12.31;79.73
13695;BME280;6919;52.344;14.518;2023-04-19T09:43:02;101385.88;;;12.11;83.42
13695;BME280;6919;52.344;14.518;2023-04-19T09:45:51;101388.84;;;12.27;86.88
13695;BME280;6919;52.344;14.518;2023-04-19T09:48:22;101384.16;;;12.65;86.43
13695;BME280;6919;52.344;14.518;2023-04-19T09:50:53;101386.06;;;12.82;80.91
13695;BME280;6919;52.344;14.518;2023-04-19T09:53:31;101390.59;;;12.82;78.79
13695;BME280;6919;52.344;14.518;2023-04-19T09:56:01;101396.63;;;12.93;75.38
13695;BME280;6919;52.344;14.518;2023-04-19T09:58:32;101382.72;;;13.25;78.31
13695;BME280;6919;52.344;14.518;2023-04-19T10:01:18;101387.47;;;13.13;71.62
13695;BME280;6919;52.344;14.518;2023-04-19T10:03:49;101382.75;;;13.15;72.74
13695;BME280;6919;52.344;14.518;2023-04-19T10:06:19;101384.47;;;12.89;77.14
13695;BME280;6919;52.344;14.518;2023-04-19T10:08:53;101389.50;;;13.29;81.71
13695;BME280;6919;52.344;14.518;2023-04-19T10:11:24;101384.63;;;13.15;75.48
13695;BME280;6919;52.344;14.518;2023-04-19T10:13:59;101380.63;;;13.19;76.22
13695;BME280;6919;52.344;14.518;2023-04-19T10:16:31;101377.75;;;13.03;81.20
13695;BME280;6919;52.344;14.518;2023-04-19T10:19:05;101372.06;;;12.79;81.76
13695;BME280;6919;52.344;14.518;2023-04-19T10:21:37;101372.34;;;13.30;77.28
13695;BME280;6919;52.344;14.518;2023-04-19T10:24:08;101376.00;;;13.11;74.56
13695;BME280;6919;52.344;14.518;2023-04-19T10:27:07;101377.09;;;12.91;74.51
13695;BME280;6919;52.344;14.518;2023-04-19T10:29:57;101376.78;;;12.67;77.33
13695;BME280;6919;52.344;14.518;2023-04-19T10:32:37;101378.28;;;12.52;81.23
13695;BME280;6919;52.344;14.518;2023-04-19T10:35:08;101364.63;;;12.27;84.85
13695;BME280;6919;52.344;14.518;2023-04-19T10:37:40;101377.75;;;11.83;87.26
13695;BME280;6919;52.344;14.518;2023-04-19T10:40:09;101364.28;;;11.55;88.59
13695;BME280;6919;52.344;14.518;2023-04-19T10:43:15;101365.59;;;11.70;93.79
13695;BME280;6919;52.344;14.518;2023-04-19T10:45:45;101356.81;;;11.77;92.49
13695;BME280;6919;52.344;14.518;2023-04-19T10:48:39;101361.50;;;11.85;94.30
13695;BME280;6919;52.344;14.518;2023-04-19T10:51:16;101362.59;;;11.82;95.68
13695;BME280;6919;52.344;14.518;2023-04-19T10:53:52;101354.28;;;11.76;92.81
13695;BME280;6919;52.344;14.518;2023-04-19T10:56:57;101351.56;;;11.85;96.11
13695;BME280;6919;52.344;14.518;2023-04-19T10:59:32;101346.38;;;12.21;94.38
13695;BME280;6919;52.344;14.518;2023-04-19T11:02:02;101341.88;;;12.58;92.70
13695;BME280;6919;52.344;14.518;2023-04-19T11:05:06;101337.84;;;12.89;96.81
13695;BME280;6919;52.344;14.518;2023-04-19T11:07:38;101338.59;;;13.43;86.97
13695;BME280;6919;52.344;14.518;2023-04-19T11:10:09;101342.41;;;13.33;84.24
13695;BME280;6919;52.344;14.518;2023-04-19T11:12:42;101328.00;;;12.80;88.66
13695;BME280;6919;52.344;14.518;2023-04-19T11:15:11;101333.59;;;12.69;85.26
13695;BME280;6919;52.344;14.518;2023-04-19T11:17:39;101339.53;;;12.45;92.01
13695;BME280;6919;52.344;14.518;2023-04-19T11:20:11;101344.09;;;12.62;85.52
13695;BME280;6919;52.344;14.518;2023-04-19T11:22:43;101336.16;;;12.34;85.75
13695;BME280;6919;52.344;14.518;2023-04-19T11:25:13;101337.00;;;12.34;87.55
13695;BME280;6919;52.344;14.518;2023-04-19T11:27:45;101338.81;;;11.97;90.28
13695;BME280;6919;52.344;14.518;2023-04-19T11:30:15;101346.91;;;11.68;96.05
13695;BME280;6919;52.344;14.518;2023-04-19T11:32:47;101348.88;;;11.28;100.00
13695;BME280;6919;52.344;14.518;2023-04-19T11:35:20;101334.44;;;10.91;100.00
13695;BME280;6919;52.344;14.518;2023-04-19T11:37:50;101343.31;;;10.82;100.00
13695;BME280;6919;52.344;14.518;2023-04-19T11:40:21;101342.53;;;10.52;100.00
13695;BME280;6919;52.344;14.518;2023-04-19T11:42:55;101336.41;;;10.40;100.00
13695;BME280;6919;52.344;14.518;2023-04-19T11:45:26;101339.72;;;10.23;100.00
13695;BME280;6919;52.344;14.518;2023-04-19T11:48:02;101344.09;;;10.04;100.00
13695;BME280;6919;52.344;14.518;2023-04-19T11:50:38;101350.25;;;10.15;100.00
13695;BME280;6919;52.344;14.518;2023-04-19T11:53:16;101359.13;;;9.95;100.00
13695;BME280;6919;52.344;14.518;2023-04-19T11:55:48;101365.88;;;9.69;100.00
13695;BME280;6919;52.344;14.518;2023-04-19T11:58:30;101358.91;;;9.46;100.00
13695;BME280;6919;52.344;14.518;2023-04-19T12:01:04;101349.72;;;9.39;100.00
13695;BME280;6919;52.344;14.518;2023-04-19T12:03:34;101348.44;;;9.23;100.00
13695;BME280;6919;52.344;14.518;2023-04-19T12:06:05;101342.97;;;9.24;100.00
13695;BME280;6919;52.344;14.518;2023-04-19T12:08:42;101336.13;;;9.31;100.00
13695;BME280;6919;52.344;14.518;2023-04-19T12:11:11;101338.47;;;9.25;100.00
13695;BME280;6919;52.344;14.518;2023-04-19T12:13:39;101335.94;;;9.44;100.00
13695;BME280;6919;52.344;14.518;2023-04-19T12:16:11;101343.59;;;9.48;100.00
13695;BME280;6919;52.344;14.518;2023-04-19T12:18:48;101339.59;;;9.43;100.00
13695;BME280;6919;52.344;14.518;2023-04-19T12:21:26;101327.13;;;9.32;100.00
13695;BME280;6919;52.344;14.518;2023-04-19T12:23:56;101339.53;;;9.33;100.00
13695;BME280;6919;52.344;14.518;2023-04-19T12:26:27;101335.75;;;9.04;100.00
13695;BME280;6919;52.344;14.518;2023-04-19T12:28:57;101334.56;;;8.97;100.00
13695;BME280;6919;52.344;14.518;2023-04-19T12:31:26;101325.63;;;8.76;100.00
13695;BME280;6919;52.344;14.518;2023-04-19T12:33:55;101327.16;;;8.89;100.00
13695;BME280;6919;52.344;14.518;2023-04-19T12:36:25;101318.66;;;8.73;100.00
13695;BME280;6919;52.344;14.518;2023-04-19T12:38:54;101288.75;;;8.48;100.00
13695;BME280;6919;52.344;14.518;2023-04-19T12:41:22;101281.94;;;8.44;100.00
13695;BME280;6919;52.344;14.518;2023-04-19T12:43:50;101288.75;;;8.48;100.00
13695;BME280;6919;52.344;14.518;2023-04-19T12:46:19;101300.75;;;8.53;100.00
13695;BME280;6919;52.344;14.518;2023-04-19T12:48:48;101294.75;;;8.61;100.00
13695;BME280;6919;52.344;14.518;2023-04-19T12:51:17;101286.78;;;8.50;100.00
13695;BME280;6919;52.344;14.518;2023-04-19T12:53:49;101292.63;;;8.44;100.00
13695;BME280;6919;52.344;14.518;2023-04-19T12:56:17;101295.53;;;8.52;100.00
13695;BME280;6919;52.344;14.518;2023-04-19T12:58:46;101285.69;;;8.30;100.00
13695;BME280;6919;52.344;14.518;2023-04-19T13:01:14;101295.06;;;8.36;100.00
13695;BME280;6919;52.344;14.518;2023-04-19T13:03:44;101284.63;;;8.44;100.00
13695;BME280;6919;52.344;14.518;2023-04-19T13:06:13;101277.09;;;8.16;100.00
13695;BME280;6919;52.344;14.518;2023-04-19T13:08:43;101261.91;;;8.27;100.00
13695;BME280;6919;52.344;14.518;2023-04-19T13:11:16;101262.25;;;8.45;100.00
13695;BME280;6919;52.344;14.518;2023-04-19T13:13:50;101251.22;;;8.38;100.00
13695;BME280;6919;52.344;14.518;2023-04-19T13:16:20;101259.59;;;8.45;100.00
13695;BME280;6919;52.344;14.518;2023-04-19T13:18:49;101250.06;;;8.63;100.00
13695;BME280;6919;52.344;14.518;2023-04-19T13:21:19;101253.06;;;8.69;100.00